createdAt,value
2018-09-14T00:01:16.332Z,19.13
2018-09-14T00:03:45.437Z,19.33
2018-09-14T00:06:14.512Z,18.27
2018-09-14T00:08:43.623Z,20.87
2018-09-14T00:11:12.719Z,18.67
2018-09-14T00:13:41.856Z,19.10
2018-09-14T00:16:10.956Z,18.30
2018-09-14T00:18:40.083Z,20.30
2018-09-14T00:21:09.183Z,20.70
2018-09-14T00:23:38.257Z,18.20
2018-09-14T00:26:07.413Z,19.67
2018-09-14T00:28:36.537Z,19.40
2018-09-14T00:31:05.680Z,18.23
2018-09-14T00:33:34.763Z,18.00
2018-09-14T00:36:03.913Z,18.57
2018-09-14T00:38:33.038Z,19.20
2018-09-14T00:41:02.086Z,19.17
2018-09-14T00:43:31.164Z,18.33
2018-09-14T00:46:00.236Z,19.93
2018-09-14T00:48:29.285Z,19.20
2018-09-14T00:50:58.407Z,18.30
2018-09-14T00:53:27.532Z,18.67
2018-09-14T00:55:56.611Z,18.37
2018-09-14T00:58:25.704Z,19.23
2018-09-14T01:00:54.820Z,19.20
2018-09-14T01:03:23.906Z,17.17
2018-09-14T01:05:53.006Z,19.00
2018-09-14T01:08:22.111Z,17.50
2018-09-14T01:10:51.207Z,16.83
2018-09-14T01:13:20.323Z,16.63
2018-09-14T01:15:49.410Z,18.30
2018-09-14T01:18:18.547Z,15.83
2018-09-14T01:20:47.659Z,16.20
2018-09-14T01:23:16.754Z,19.90
2018-09-14T01:25:45.886Z,19.93
2018-09-14T01:28:14.922Z,17.87
2018-09-14T01:30:44.060Z,17.00
2018-09-14T01:33:13.122Z,19.53
2018-09-14T01:35:47.354Z,18.27
2018-09-14T01:38:16.494Z,17.40
2018-09-14T01:40:45.579Z,15.10
2018-09-14T01:43:14.708Z,17.50
2018-09-14T01:45:43.794Z,17.17
2018-09-14T01:48:12.926Z,17.13
2018-09-14T01:50:42.176Z,18.17
2018-09-14T01:53:11.423Z,18.30
2018-09-14T01:55:40.503Z,18.07
2018-09-14T01:58:09.600Z,14.93
2018-09-14T02:00:38.693Z,16.67
2018-09-14T02:03:07.769Z,16.53
2018-09-14T02:05:36.920Z,16.37
2018-09-14T02:08:06.053Z,16.77
2018-09-14T02:10:35.108Z,16.10
2018-09-14T02:13:04.168Z,16.03
2018-09-14T02:15:33.391Z,16.70
2018-09-14T02:18:02.523Z,15.70
2018-09-14T02:20:31.602Z,15.57
2018-09-14T02:23:00.714Z,16.17
2018-09-14T02:25:30.770Z,15.10
2018-09-14T02:27:59.850Z,17.20
2018-09-14T02:30:28.929Z,16.90
2018-09-14T02:32:58.023Z,17.57
2018-09-14T02:35:27.076Z,16.73
2018-09-14T02:37:56.126Z,17.07
2018-09-14T02:40:25.214Z,16.27
2018-09-14T02:42:54.368Z,17.77
2018-09-14T02:45:23.436Z,16.77
2018-09-14T02:47:52.547Z,17.20
2018-09-14T02:50:21.683Z,16.17
2018-09-14T02:52:50.801Z,17.27
2018-09-14T02:55:19.932Z,15.00
2018-09-14T02:57:49.026Z,14.77
2018-09-14T03:00:18.130Z,15.17
2018-09-14T03:02:47.172Z,14.63
2018-09-14T03:05:16.272Z,13.90
2018-09-14T03:07:45.363Z,16.00
2018-09-14T03:10:14.559Z,16.10
2018-09-14T03:12:43.634Z,18.43
2018-09-14T03:15:12.749Z,17.33
2018-09-14T03:17:41.798Z,18.00
2018-09-14T03:20:10.872Z,16.37
2018-09-14T03:22:39.942Z,17.20
2018-09-14T03:25:09.058Z,16.57
2018-09-14T03:27:38.111Z,16.73
2018-09-14T03:30:07.269Z,18.40
2018-09-14T03:32:36.370Z,19.00
2018-09-14T03:35:05.512Z,17.77
2018-09-14T03:37:34.565Z,19.53
2018-09-14T03:40:03.691Z,18.13
2018-09-14T03:42:32.798Z,17.60
2018-09-14T03:45:01.928Z,18.20
2018-09-14T03:47:30.984Z,18.83
2018-09-14T03:50:00.099Z,17.70
2018-09-14T03:52:29.184Z,18.37
2018-09-14T03:54:58.226Z,18.50
2018-09-14T03:57:27.351Z,18.20
2018-09-14T03:59:56.391Z,17.60
2018-09-14T04:02:25.485Z,17.63
2018-09-14T04:04:54.534Z,18.77
2018-09-14T04:07:23.622Z,17.30
2018-09-14T04:09:52.683Z,17.33
2018-09-14T04:12:22.094Z,17.13
2018-09-14T04:14:51.253Z,16.70
2018-09-14T04:17:20.348Z,17.90
2018-09-14T04:19:49.470Z,16.90
2018-09-14T04:22:18.577Z,16.80
2018-09-14T04:24:47.659Z,16.97
2018-09-14T04:27:16.767Z,17.27
2018-09-14T04:29:45.983Z,14.87
2018-09-14T04:32:15.182Z,17.73
2018-09-14T04:34:44.280Z,16.73
2018-09-14T04:37:13.395Z,16.77
2018-09-14T04:39:42.530Z,15.00
2018-09-14T04:42:11.592Z,16.80
2018-09-14T04:44:40.719Z,19.60
2018-09-14T04:47:09.781Z,17.37
2018-09-14T04:49:38.888Z,17.17
2018-09-14T04:52:07.964Z,17.93
2018-09-14T04:54:37.129Z,19.60
2018-09-14T04:57:06.404Z,16.77
2018-09-14T04:59:35.690Z,17.43
2018-09-14T05:02:04.789Z,17.90
2018-09-14T05:04:33.866Z,17.17
2018-09-14T05:07:03.022Z,15.73
2018-09-14T05:09:32.090Z,17.10
2018-09-14T05:12:01.176Z,16.60
2018-09-14T05:14:30.338Z,16.37
2018-09-14T05:16:59.476Z,16.30
2018-09-14T05:19:28.595Z,17.37
2018-09-14T05:21:57.690Z,16.87
2018-09-14T05:24:26.855Z,16.50
2018-09-14T05:26:55.964Z,17.87
2018-09-14T05:29:25.057Z,17.20
2018-09-14T05:31:54.150Z,17.67
2018-09-14T05:34:23.452Z,18.83
2018-09-14T05:36:52.506Z,17.03
2018-09-14T05:39:21.723Z,16.50
2018-09-14T05:41:50.793Z,19.00
2018-09-14T05:44:23.526Z,16.73
2018-09-14T05:46:52.625Z,15.83
2018-09-14T05:49:21.753Z,16.83
2018-09-14T05:51:50.980Z,16.87
2018-09-14T05:54:20.113Z,15.50
2018-09-14T05:56:49.217Z,15.50
2018-09-14T05:59:18.373Z,15.43
2018-09-14T06:01:48.500Z,15.20
2018-09-14T06:04:17.623Z,16.20
2018-09-14T06:06:46.718Z,19.87
2018-09-14T06:09:15.815Z,19.80
2018-09-14T06:11:44.899Z,18.57
2018-09-14T06:14:14.009Z,19.00
2018-09-14T06:16:43.172Z,17.93
2018-09-14T06:19:12.326Z,17.93
2018-09-14T06:21:41.415Z,17.90
2018-09-14T06:24:10.615Z,18.50
2018-09-14T06:26:39.835Z,19.67
2018-09-14T06:29:08.978Z,18.57
2018-09-14T06:31:38.046Z,21.93
2018-09-14T06:34:07.221Z,21.67
2018-09-14T06:36:36.328Z,21.30
2018-09-14T06:39:08.375Z,20.40
2018-09-14T06:41:37.601Z,20.97
2018-09-14T06:44:07.030Z,21.60
2018-09-14T06:46:36.319Z,25.55
2018-09-14T06:49:06.403Z,23.67
2018-09-14T06:51:37.078Z,22.10
2018-09-14T06:54:06.305Z,22.57
2018-09-14T06:56:35.408Z,22.13
2018-09-14T06:59:04.696Z,21.37
2018-09-14T07:01:33.863Z,23.00
2018-09-14T07:04:02.953Z,23.53
2018-09-14T07:06:32.472Z,21.87
2018-09-14T07:09:01.593Z,21.90
2018-09-14T07:11:30.746Z,22.37
2018-09-14T07:13:59.823Z,21.60
2018-09-14T07:16:28.935Z,22.97
2018-09-14T07:18:58.061Z,24.47
2018-09-14T07:21:27.284Z,25.93
2018-09-14T07:23:56.420Z,22.00
2018-09-14T07:26:25.506Z,22.40
2018-09-14T07:28:54.693Z,23.30
2018-09-14T07:31:23.713Z,23.57
2018-09-14T07:33:52.806Z,20.97
2018-09-14T07:36:21.905Z,19.83
2018-09-14T07:38:50.998Z,17.93
2018-09-14T07:41:20.075Z,21.90
2018-09-14T07:43:49.169Z,22.07
2018-09-14T07:46:18.268Z,19.90
2018-09-14T07:48:47.529Z,21.33
2018-09-14T07:51:16.655Z,22.17
2018-09-14T07:53:45.740Z,22.60
2018-09-14T07:56:14.835Z,21.60
2018-09-14T07:58:43.947Z,24.60
2018-09-14T08:01:13.165Z,26.03
2018-09-14T08:03:42.243Z,24.90
2018-09-14T08:06:11.395Z,23.97
2018-09-14T08:08:40.458Z,23.03
2018-09-14T08:11:09.559Z,26.95
2018-09-14T08:13:38.724Z,35.87
2018-09-14T08:16:07.886Z,28.07
2018-09-14T08:18:37.089Z,24.37
2018-09-14T08:21:07.403Z,24.27
2018-09-14T08:23:36.491Z,24.97
2018-09-14T08:26:05.584Z,25.70
2018-09-14T08:28:34.667Z,27.00
2018-09-14T08:31:03.735Z,26.17
2018-09-14T08:33:32.924Z,22.73
2018-09-14T08:36:02.043Z,24.50
2018-09-14T08:38:31.200Z,26.00
2018-09-14T08:41:00.336Z,25.77
2018-09-14T08:43:29.482Z,23.80
2018-09-14T08:45:58.561Z,26.67
2018-09-14T08:48:27.686Z,27.03
2018-09-14T08:50:56.796Z,23.83
2018-09-14T08:53:25.917Z,23.10
2018-09-14T08:55:55.002Z,22.00
2018-09-14T08:58:24.163Z,22.77
2018-09-14T09:00:53.397Z,21.93
2018-09-14T09:03:22.391Z,23.27
2018-09-14T09:05:51.517Z,21.33
2018-09-14T09:08:20.671Z,19.20
2018-09-14T09:10:49.840Z,21.60
2018-09-14T09:13:18.925Z,17.87
2018-09-14T09:15:48.032Z,16.57
2018-09-14T09:18:17.194Z,16.40
2018-09-14T09:20:46.315Z,17.20
2018-09-14T09:23:15.492Z,16.50
2018-09-14T09:25:44.690Z,16.13
2018-09-14T09:28:13.892Z,15.13
2018-09-14T09:30:43.010Z,22.20
2018-09-14T09:33:12.131Z,14.43
2018-09-14T09:35:41.225Z,15.17
2018-09-14T09:38:10.378Z,20.73
2018-09-14T09:40:39.594Z,36.93
2018-09-14T09:43:08.789Z,14.70
2018-09-14T09:45:37.909Z,13.67
2018-09-14T09:48:07.070Z,14.60
2018-09-14T09:50:36.197Z,13.53
2018-09-14T09:53:06.085Z,13.10
2018-09-14T09:55:35.445Z,12.00
2018-09-14T09:58:04.589Z,12.77
2018-09-14T10:00:38.948Z,12.73
2018-09-14T10:03:13.225Z,11.00
2018-09-14T10:05:47.642Z,12.00
2018-09-14T10:08:16.840Z,11.00
2018-09-14T10:10:45.976Z,9.83
2018-09-14T10:13:15.119Z,10.77
2018-09-14T10:15:44.359Z,12.37
2018-09-14T10:18:13.475Z,9.87
2018-09-14T10:20:42.637Z,10.70
2018-09-14T10:23:11.865Z,10.90
2018-09-14T10:25:40.979Z,10.80
2018-09-14T10:28:10.066Z,10.10
2018-09-14T10:30:39.250Z,10.57
2018-09-14T10:33:08.362Z,11.00
2018-09-14T10:35:37.557Z,10.53
2018-09-14T10:38:07.016Z,11.17
2018-09-14T10:40:36.634Z,11.03
2018-09-14T10:43:06.375Z,10.50
2018-09-14T10:45:35.498Z,11.07
2018-09-14T10:48:04.758Z,11.33
2018-09-14T10:50:33.927Z,10.07
2018-09-14T10:53:03.460Z,10.57
2018-09-14T10:55:32.612Z,9.93
2018-09-14T10:58:08.203Z,9.20
2018-09-14T11:00:37.406Z,8.67
2018-09-14T11:03:06.511Z,8.13
2018-09-14T11:05:35.679Z,10.10
2018-09-14T11:08:04.814Z,9.90
2018-09-14T11:10:33.899Z,9.87
2018-09-14T11:13:03.119Z,8.90
2018-09-14T11:15:32.428Z,8.33
2018-09-14T11:18:01.540Z,10.17
2018-09-14T11:20:30.855Z,10.30
2018-09-14T11:22:59.946Z,9.70
2018-09-14T11:25:29.144Z,10.20
2018-09-14T11:27:58.252Z,9.30
2018-09-14T11:30:27.313Z,10.30
2018-09-14T11:32:56.407Z,10.23
2018-09-14T11:35:25.516Z,10.10
2018-09-14T11:37:54.755Z,12.27
2018-09-14T11:40:23.799Z,10.60
2018-09-14T11:42:52.887Z,10.77
2018-09-14T11:45:22.048Z,10.57
2018-09-14T11:47:51.153Z,9.37
2018-09-14T11:50:20.251Z,9.60
2018-09-14T11:52:49.368Z,8.70
2018-09-14T11:55:18.509Z,8.37
2018-09-14T11:57:47.646Z,8.03
2018-09-14T12:00:16.850Z,9.57
2018-09-14T12:02:45.959Z,7.70
2018-09-14T12:05:15.081Z,8.97
2018-09-14T12:07:44.196Z,10.17
2018-09-14T12:10:13.311Z,9.17
2018-09-14T12:12:42.441Z,9.10
2018-09-14T12:15:11.589Z,10.20
2018-09-14T12:17:40.800Z,9.27
2018-09-14T12:20:10.061Z,9.83
2018-09-14T12:22:39.213Z,9.23
2018-09-14T12:25:08.326Z,9.43
2018-09-14T12:27:37.416Z,9.53
2018-09-14T12:30:06.629Z,9.83
2018-09-14T12:32:35.796Z,12.17
2018-09-14T12:35:04.937Z,8.53
2018-09-14T12:37:34.119Z,9.47
2018-09-14T12:40:03.262Z,10.33
2018-09-14T12:42:32.441Z,12.67
2018-09-14T12:45:01.523Z,10.00
2018-09-14T12:47:30.748Z,10.87
2018-09-14T12:49:59.914Z,10.00
2018-09-14T12:52:29.254Z,9.90
2018-09-14T12:54:58.450Z,10.47
2018-09-14T12:57:27.576Z,10.50
2018-09-14T12:59:56.659Z,13.53
2018-09-14T13:02:25.793Z,14.37
2018-09-14T13:04:54.940Z,15.43
2018-09-14T13:07:24.111Z,13.63
2018-09-14T13:09:53.232Z,11.93
2018-09-14T13:12:22.391Z,13.33
2018-09-14T13:14:51.698Z,11.50
2018-09-14T13:17:20.735Z,12.27
2018-09-14T13:19:49.917Z,11.73
2018-09-14T13:22:19.132Z,10.40
2018-09-14T13:24:49.713Z,9.27
2018-09-14T13:27:18.857Z,11.20
2018-09-14T13:29:48.159Z,11.27
2018-09-14T13:32:17.488Z,10.67
2018-09-14T13:34:46.677Z,10.67
2018-09-14T13:37:15.757Z,10.00
2018-09-14T13:39:45.142Z,8.93
2018-09-14T13:42:14.268Z,8.50
2018-09-14T13:44:43.413Z,8.70
2018-09-14T13:47:12.532Z,10.70
2018-09-14T13:49:41.737Z,22.07
2018-09-14T13:52:10.859Z,10.60
2018-09-14T13:54:39.975Z,10.93
2018-09-14T13:57:09.084Z,12.10
2018-09-14T13:59:38.291Z,10.87
2018-09-14T14:02:07.420Z,9.77
2018-09-14T14:04:36.549Z,10.73
2018-09-14T14:07:06.002Z,9.53
2018-09-14T14:09:35.178Z,9.73
2018-09-14T14:12:04.298Z,10.00
2018-09-14T14:14:33.434Z,9.33
2018-09-14T14:17:02.648Z,8.60
2018-09-14T14:19:31.685Z,9.40
2018-09-14T14:22:00.845Z,10.20
2018-09-14T14:24:29.961Z,9.20
2018-09-14T14:26:59.098Z,8.20
2018-09-14T14:29:28.282Z,7.77
2018-09-14T14:31:57.368Z,8.33
2018-09-14T14:34:26.484Z,10.77
2018-09-14T14:36:55.679Z,9.67
2018-09-14T14:39:24.751Z,10.50
2018-09-14T14:41:53.897Z,11.97
2018-09-14T14:44:23.070Z,12.50
2018-09-14T14:46:52.168Z,12.80
2018-09-14T14:49:21.481Z,11.63
2018-09-14T14:51:50.516Z,10.87
2018-09-14T14:54:19.666Z,11.20
2018-09-14T14:56:48.755Z,11.33
2018-09-14T14:59:18.123Z,12.30
2018-09-14T15:01:47.210Z,10.73
2018-09-14T15:04:16.462Z,10.00
2018-09-14T15:06:45.593Z,10.20
2018-09-14T15:09:14.730Z,11.70
2018-09-14T15:11:43.863Z,10.17
2018-09-14T15:14:13.014Z,9.97
2018-09-14T15:16:42.106Z,10.90
2018-09-14T15:19:11.364Z,11.50
2018-09-14T15:21:40.405Z,10.97
2018-09-14T15:24:09.579Z,10.57
2018-09-14T15:26:38.682Z,12.50
2018-09-14T15:29:08.091Z,11.50
2018-09-14T15:31:37.311Z,10.90
2018-09-14T15:34:06.419Z,9.27
2018-09-14T15:36:35.509Z,9.73
2018-09-14T15:39:08.533Z,8.20
2018-09-14T15:41:37.734Z,7.77
2018-09-14T15:44:06.944Z,9.47
2018-09-14T15:46:36.077Z,9.20
2018-09-14T15:49:06.170Z,10.40
2018-09-14T15:51:35.255Z,8.47
2018-09-14T15:54:04.438Z,9.30
2018-09-14T15:56:33.571Z,9.90
2018-09-14T15:59:02.779Z,9.17
2018-09-14T16:01:31.899Z,9.37
2018-09-14T16:04:01.076Z,7.80
2018-09-14T16:06:30.227Z,9.03
2018-09-14T16:08:59.353Z,8.83
2018-09-14T16:11:28.474Z,9.40
2018-09-14T16:13:57.605Z,7.50
2018-09-14T16:16:26.783Z,8.83
2018-09-14T16:18:56.037Z,10.73
2018-09-14T16:21:25.161Z,10.23
2018-09-14T16:23:54.403Z,11.97
2018-09-14T16:26:23.703Z,8.90
2018-09-14T16:28:52.760Z,8.60
2018-09-14T16:31:21.923Z,8.67
2018-09-14T16:33:51.110Z,8.13
2018-09-14T16:36:20.199Z,8.20
2018-09-14T16:38:49.303Z,8.10
2018-09-14T16:41:19.045Z,7.20
2018-09-14T16:43:48.132Z,7.00
2018-09-14T16:46:17.238Z,7.30
2018-09-14T16:48:46.357Z,6.43
2018-09-14T16:51:15.517Z,6.53
2018-09-14T16:53:44.615Z,6.33
2018-09-14T16:56:13.681Z,6.20
2018-09-14T16:58:42.920Z,5.67
2018-09-14T17:01:12.029Z,7.03
2018-09-14T17:03:41.114Z,6.33
2018-09-14T17:06:10.406Z,5.73
2018-09-14T17:08:39.518Z,6.00
2018-09-14T17:11:08.622Z,5.23
2018-09-14T17:13:37.831Z,5.10
2018-09-14T17:16:07.017Z,4.90
2018-09-14T17:18:36.163Z,4.80
2018-09-14T17:21:05.297Z,5.30
2018-09-14T17:23:34.675Z,5.43
2018-09-14T17:26:03.845Z,5.70
2018-09-14T17:28:32.946Z,5.20
2018-09-14T17:31:02.134Z,4.63
2018-09-14T17:33:31.240Z,4.37
2018-09-14T17:36:00.424Z,5.23
2018-09-14T17:38:29.552Z,5.30
2018-09-14T17:40:58.693Z,5.50
2018-09-14T17:43:27.826Z,5.37
2018-09-14T17:45:56.986Z,5.20
2018-09-14T17:48:26.198Z,4.53
2018-09-14T17:50:55.366Z,5.07
2018-09-14T17:53:24.506Z,5.70
2018-09-14T17:55:53.678Z,4.47
2018-09-14T17:58:22.879Z,6.17
2018-09-14T18:00:52.118Z,5.70
2018-09-14T18:03:21.240Z,4.93
2018-09-14T18:05:50.392Z,4.50
2018-09-14T18:08:19.973Z,4.53
2018-09-14T18:10:50.157Z,6.10
2018-09-14T18:13:19.305Z,5.07
2018-09-14T18:15:48.456Z,5.17
2018-09-14T18:18:17.619Z,5.37
2018-09-14T18:20:46.777Z,6.50
2018-09-14T18:23:15.969Z,5.50
2018-09-14T18:25:45.121Z,5.70
2018-09-14T18:28:14.274Z,5.87
2018-09-14T18:30:43.640Z,6.90
2018-09-14T18:33:12.800Z,6.80
2018-09-14T18:35:42.067Z,6.80
2018-09-14T18:38:11.206Z,6.40
2018-09-14T18:40:41.211Z,6.00
2018-09-14T18:43:10.526Z,5.67
2018-09-14T18:45:39.712Z,7.13
2018-09-14T18:48:08.881Z,21.70
2018-09-14T18:50:38.094Z,25.33
2018-09-14T18:53:07.357Z,8.07
2018-09-14T18:55:36.536Z,6.30
2018-09-14T18:58:05.731Z,4.90
2018-09-14T19:00:34.903Z,4.80
2018-09-14T19:03:04.044Z,4.60
2018-09-14T19:05:33.307Z,4.93
2018-09-14T19:08:02.376Z,6.80
2018-09-14T19:10:31.831Z,5.77
2018-09-14T19:13:00.998Z,5.70
2018-09-14T19:15:30.166Z,5.80
2018-09-14T19:17:59.319Z,5.20
2018-09-14T19:20:28.563Z,5.67
2018-09-14T19:22:57.773Z,5.50
2018-09-14T19:25:27.011Z,5.90
2018-09-14T19:27:56.215Z,6.63
2018-09-14T19:30:25.417Z,6.23
2018-09-14T19:32:54.732Z,6.00
2018-09-14T19:35:23.979Z,6.40
2018-09-14T19:37:53.130Z,7.07
2018-09-14T19:40:22.281Z,6.27
2018-09-14T19:42:51.433Z,6.70
2018-09-14T19:45:20.609Z,5.63
2018-09-14T19:47:49.914Z,5.63
2018-09-14T19:50:19.198Z,6.40
2018-09-14T19:52:48.284Z,5.80
2018-09-14T19:55:17.492Z,5.80
2018-09-14T19:57:46.621Z,5.60
2018-09-14T20:00:15.946Z,5.70
2018-09-14T20:02:45.185Z,5.83
2018-09-14T20:05:14.339Z,6.30
2018-09-14T20:07:43.517Z,5.93
2018-09-14T20:10:12.675Z,6.40
2018-09-14T20:12:41.806Z,16.93
2018-09-14T20:15:10.976Z,22.43
2018-09-14T20:17:40.221Z,10.37
2018-09-14T20:20:09.423Z,7.20
2018-09-14T20:22:38.609Z,9.33
2018-09-14T20:25:07.810Z,11.20
2018-09-14T20:27:37.013Z,10.37
2018-09-14T20:30:07.260Z,8.80
2018-09-14T20:32:36.414Z,6.13
2018-09-14T20:35:05.705Z,7.70
2018-09-14T20:37:34.807Z,6.57
2018-09-14T20:40:04.029Z,7.00
2018-09-14T20:42:33.653Z,6.60
2018-09-14T20:45:02.818Z,6.50
2018-09-14T20:47:32.386Z,7.03
2018-09-14T20:50:01.521Z,6.80
2018-09-14T20:52:30.731Z,7.03
2018-09-14T20:54:59.970Z,7.20
2018-09-14T20:57:29.148Z,7.20
2018-09-14T20:59:58.269Z,7.37
2018-09-14T21:02:27.431Z,6.37
2018-09-14T21:04:56.570Z,7.50
2018-09-14T21:07:25.798Z,7.53
2018-09-14T21:09:54.972Z,7.77
2018-09-14T21:12:24.093Z,7.63
2018-09-14T21:14:53.263Z,6.90
2018-09-14T21:17:22.411Z,7.10
2018-09-14T21:19:51.546Z,7.40
2018-09-14T21:22:20.629Z,7.20
2018-09-14T21:24:49.794Z,6.13
2018-09-14T21:27:19.118Z,11.10
2018-09-14T21:29:48.309Z,6.57
2018-09-14T21:32:17.436Z,8.70
2018-09-14T21:34:49.505Z,7.17
2018-09-14T21:37:18.613Z,6.07
2018-09-14T21:39:47.839Z,6.00
2018-09-14T21:42:20.278Z,6.23
2018-09-14T21:44:49.418Z,6.13
2018-09-14T21:47:18.548Z,6.00
2018-09-14T21:49:47.798Z,5.73
2018-09-14T21:52:16.969Z,6.00
2018-09-14T21:54:46.159Z,7.00
2018-09-14T21:57:15.360Z,6.10
2018-09-14T21:59:44.666Z,6.43
2018-09-14T22:02:13.878Z,6.37
2018-09-14T22:04:43.006Z,6.50
2018-09-14T22:07:12.103Z,6.53
2018-09-14T22:09:41.235Z,7.30
2018-09-14T22:12:10.364Z,8.13
2018-09-14T22:14:39.462Z,6.83
2018-09-14T22:17:08.615Z,7.27
2018-09-14T22:19:37.717Z,6.57
2018-09-14T22:22:06.884Z,6.30
2018-09-14T22:24:35.946Z,7.53
2018-09-14T22:27:05.099Z,6.67
2018-09-14T22:29:34.589Z,7.27
2018-09-14T22:32:03.701Z,6.70
2018-09-14T22:34:32.802Z,7.07
2018-09-14T22:37:01.897Z,7.90
2018-09-14T22:39:31.091Z,6.73
2018-09-14T22:42:00.376Z,7.50
2018-09-14T22:44:29.478Z,6.17
2018-09-14T22:46:58.596Z,7.60
2018-09-14T22:49:27.718Z,7.10
2018-09-14T22:51:56.874Z,6.70
2018-09-14T22:54:26.050Z,6.50
2018-09-14T22:56:55.159Z,6.63
2018-09-14T22:59:24.375Z,7.43
2018-09-14T23:01:53.759Z,8.07
2018-09-14T23:04:22.822Z,7.30
2018-09-14T23:06:51.963Z,7.77
2018-09-14T23:09:21.170Z,7.53
2018-09-14T23:11:50.206Z,7.63
2018-09-14T23:14:19.346Z,8.27
2018-09-14T23:16:48.399Z,7.80
2018-09-14T23:19:17.538Z,8.47
2018-09-14T23:21:46.683Z,8.37
2018-09-14T23:24:15.787Z,8.97
2018-09-14T23:26:44.946Z,8.80
2018-09-14T23:29:14.053Z,8.90
2018-09-14T23:31:43.131Z,8.40
2018-09-14T23:34:12.267Z,8.37
2018-09-14T23:36:41.404Z,8.53
2018-09-14T23:39:11.652Z,8.73
2018-09-14T23:41:40.770Z,8.57
2018-09-14T23:44:09.875Z,8.70
2018-09-14T23:46:38.925Z,8.50
2018-09-14T23:49:08.062Z,8.60
2018-09-14T23:51:37.140Z,8.10
2018-09-14T23:54:06.296Z,8.90
2018-09-14T23:56:35.384Z,8.80
2018-09-14T23:59:04.488Z,9.20
